Time;durP1;ratioP1;P1;durP2;ratioP2;P2;SDS_P1;SDS_P2;PMS_P1;PMS_P2;Temp;Humidity;BMP_temperature;BMP_pressure;BME280_temperature;BME280_humidity;BME280_pressure;Samples;Min_cycle;Max_cycle;Signal;HPM_P1;HPM_P2
2021/10/25 00:00:55;;;;;;;16.63;11.85;;;;;;;;;;4934134;29;20482;-66
2021/10/25 00:03:21;;;;;;;14.25;10.90;;;;;;;;;;4933899;29;20052;-66
2021/10/25 00:05:48;;;;;;;14.68;10.70;;;;;;;;;;4916453;29;20116;-66
2021/10/25 00:08:15;;;;;;;17.02;11.40;;;;;;;;;;4915140;29;20048;-66
2021/10/25 00:10:42;;;;;;;18.42;11.32;;;;;;;;;;4916251;29;20055;-66
2021/10/25 00:13:08;;;;;;;15.52;11.05;;;;;;;;;;4918386;29;20563;-66
2021/10/25 00:15:36;;;;;;;20.95;12.13;;;;;;;;;;4918606;29;20048;-66
2021/10/25 00:18:04;;;;;;;15.13;11.35;;;;;;;;;;4918568;29;20111;-66
2021/10/25 00:20:31;;;;;;;19.17;12.35;;;;;;;;;;4926724;29;20082;-66
2021/10/25 00:22:57;;;;;;;17.77;12.35;;;;;;;;;;4937085;29;20051;-66
2021/10/25 00:25:24;;;;;;;16.02;12.00;;;;;;;;;;4937442;29;20553;-66
2021/10/25 00:27:51;;;;;;;17.58;11.55;;;;;;;;;;4937298;29;20047;-66
2021/10/25 00:30:17;;;;;;;15.80;10.88;;;;;;;;;;4937285;29;20467;-66
2021/10/25 00:32:44;;;;;;;21.45;12.43;;;;;;;;;;4937076;29;20558;-66
2021/10/25 00:35:10;;;;;;;18.67;11.60;;;;;;;;;;4920207;29;20056;-66
2021/10/25 00:37:37;;;;;;;19.60;11.63;;;;;;;;;;4918069;29;20048;-66
2021/10/25 00:40:05;;;;;;;16.02;11.35;;;;;;;;;;4918135;29;20056;-66
2021/10/25 00:42:33;;;;;;;13.55;10.45;;;;;;;;;;4917879;29;20052;-66
2021/10/25 00:44:59;;;;;;;16.45;11.52;;;;;;;;;;4918131;29;20507;-66
2021/10/25 00:47:26;;;;;;;15.45;11.48;;;;;;;;;;4918033;29;20100;-66
2021/10/25 00:49:53;;;;;;;21.40;12.65;;;;;;;;;;4917993;29;20052;-66
2021/10/25 00:52:19;;;;;;;16.90;12.45;;;;;;;;;;4917629;29;20048;-66
2021/10/25 00:54:46;;;;;;;18.33;12.70;;;;;;;;;;4917985;29;20059;-66
2021/10/25 00:57:13;;;;;;;20.52;12.65;;;;;;;;;;4931535;29;20107;-66
2021/10/25 00:59:39;;;;;;;17.40;12.07;;;;;;;;;;4936763;29;20578;-66
2021/10/25 01:02:06;;;;;;;17.20;13.15;;;;;;;;;;4936471;29;20055;-66
2021/10/25 01:04:33;;;;;;;23.20;13.57;;;;;;;;;;4936752;29;20087;-66
2021/10/25 01:07:00;;;;;;;18.40;13.05;;;;;;;;;;4935722;29;20052;-66
2021/10/25 01:09:27;;;;;;;18.85;13.82;;;;;;;;;;4936669;29;20115;-66
2021/10/25 01:11:54;;;;;;;18.00;13.10;;;;;;;;;;4906183;29;20650;-66
2021/10/25 01:14:20;;;;;;;19.20;13.57;;;;;;;;;;4916358;29;20059;-66
2021/10/25 01:16:47;;;;;;;21.67;13.65;;;;;;;;;;4916518;29;20461;-66
2021/10/25 01:19:14;;;;;;;19.95;13.73;;;;;;;;;;4919186;29;20039;-66
2021/10/25 01:21:41;;;;;;;21.48;13.80;;;;;;;;;;4916633;29;20499;-66
2021/10/25 01:24:08;;;;;;;19.75;13.63;;;;;;;;;;4917162;29;20126;-66
2021/10/25 01:26:35;;;;;;;19.52;13.23;;;;;;;;;;4917589;29;20555;-66
2021/10/25 01:29:06;;;;;;;21.15;14.88;;;;;;;;;;4917499;29;20123;-66
2021/10/25 01:31:33;;;;;;;21.30;14.40;;;;;;;;;;4917000;29;20507;-66
2021/10/25 01:34:03;;;;;;;19.60;14.38;;;;;;;;;;4917333;29;20067;-66
2021/10/25 01:36:30;;;;;;;22.65;15.25;;;;;;;;;;4917295;29;20110;-66
2021/10/25 01:38:57;;;;;;;19.20;13.50;;;;;;;;;;4917016;29;20051;-66
2021/10/25 01:41:26;;;;;;;23.05;14.50;;;;;;;;;;4916808;29;20400;-66
2021/10/25 01:43:52;;;;;;;21.98;15.00;;;;;;;;;;4916986;29;20077;-66
2021/10/25 01:46:19;;;;;;;21.27;15.10;;;;;;;;;;4917091;29;20055;-66
2021/10/25 01:48:46;;;;;;;19.20;14.18;;;;;;;;;;4917191;29;20044;-66
2021/10/25 01:51:13;;;;;;;18.48;13.60;;;;;;;;;;4916910;29;20284;-66
2021/10/25 01:53:39;;;;;;;22.55;14.27;;;;;;;;;;4916924;29;20566;-66
2021/10/25 01:56:09;;;;;;;21.15;14.93;;;;;;;;;;4915554;29;20135;-66
2021/10/25 01:58:36;;;;;;;19.95;14.13;;;;;;;;;;4916779;29;20048;-66
2021/10/25 02:01:03;;;;;;;25.08;16.33;;;;;;;;;;4916897;29;20056;-66
2021/10/25 02:03:32;;;;;;;20.73;14.07;;;;;;;;;;4916542;29;20063;-66
2021/10/25 02:05:59;;;;;;;23.65;15.48;;;;;;;;;;4916790;29;20463;-66
2021/10/25 02:08:26;;;;;;;22.23;14.10;;;;;;;;;;4916466;29;20103;-66
2021/10/25 02:10:53;;;;;;;22.95;14.63;;;;;;;;;;4916466;29;20108;-66
2021/10/25 02:13:20;;;;;;;22.45;13.85;;;;;;;;;;4916255;29;20056;-66
2021/10/25 02:15:47;;;;;;;21.27;12.93;;;;;;;;;;4916599;29;20052;-66
2021/10/25 02:18:14;;;;;;;20.73;13.52;;;;;;;;;;4916136;29;20047;-66
2021/10/25 02:20:41;;;;;;;18.02;13.55;;;;;;;;;;4916515;29;20051;-66
2021/10/25 02:23:09;;;;;;;22.00;13.80;;;;;;;;;;4916020;29;20104;-66
2021/10/25 02:25:36;;;;;;;21.08;14.60;;;;;;;;;;4916501;29;20056;-66
2021/10/25 02:28:04;;;;;;;17.90;13.05;;;;;;;;;;4916135;29;20055;-66
2021/10/25 02:30:33;;;;;;;22.55;13.55;;;;;;;;;;4916154;29;20504;-66
2021/10/25 02:33:00;;;;;;;19.48;13.70;;;;;;;;;;4915361;29;20103;-66
2021/10/25 02:35:27;;;;;;;18.05;13.15;;;;;;;;;;4915689;29;20063;-66
2021/10/25 02:37:56;;;;;;;19.20;12.70;;;;;;;;;;4916100;29;20044;-66
2021/10/25 02:40:25;;;;;;;18.75;13.75;;;;;;;;;;4916042;29;20428;-66
2021/10/25 02:42:52;;;;;;;17.33;12.25;;;;;;;;;;4915744;29;20115;-66
2021/10/25 02:45:19;;;;;;;18.83;12.63;;;;;;;;;;4915833;29;20567;-66
2021/10/25 02:47:46;;;;;;;17.77;12.25;;;;;;;;;;4915833;29;20096;-66
2021/10/25 02:50:13;;;;;;;17.17;12.63;;;;;;;;;;4915775;29;20577;-66
2021/10/25 02:52:40;;;;;;;16.98;12.20;;;;;;;;;;4915788;29;20491;-66
2021/10/25 02:55:07;;;;;;;19.67;13.20;;;;;;;;;;4915773;29;20060;-66
2021/10/25 02:57:34;;;;;;;23.30;13.18;;;;;;;;;;4914741;29;20108;-66
2021/10/25 03:00:01;;;;;;;19.92;12.90;;;;;;;;;;4915882;29;20060;-66
2021/10/25 03:02:27;;;;;;;17.80;12.07;;;;;;;;;;4915372;29;20507;-66
2021/10/25 03:04:54;;;;;;;21.00;12.55;;;;;;;;;;4915837;29;20058;-66
2021/10/25 03:07:21;;;;;;;17.23;12.43;;;;;;;;;;4915661;29;20056;-66
2021/10/25 03:09:47;;;;;;;19.10;12.27;;;;;;;;;;4915882;29;20571;-66
2021/10/25 03:12:14;;;;;;;21.10;12.95;;;;;;;;;;4915438;29;20059;-66
2021/10/25 03:14:41;;;;;;;19.27;12.95;;;;;;;;;;4915792;29;20059;-66
2021/10/25 03:17:08;;;;;;;21.05;13.30;;;;;;;;;;4930379;29;20048;-66
2021/10/25 03:19:34;;;;;;;18.52;13.10;;;;;;;;;;4934455;29;20634;-66
2021/10/25 03:22:01;;;;;;;17.13;12.02;;;;;;;;;;4934207;29;20451;-66
2021/10/25 03:24:28;;;;;;;19.42;12.68;;;;;;;;;;4934507;29;20051;-66
2021/10/25 03:26:54;;;;;;;18.33;12.40;;;;;;;;;;4918434;29;20052;-66
2021/10/25 03:29:21;;;;;;;14.27;11.43;;;;;;;;;;4915494;29;20047;-66
2021/10/25 03:31:48;;;;;;;19.80;13.32;;;;;;;;;;4915626;29;20052;-66
2021/10/25 03:34:15;;;;;;;17.98;11.90;;;;;;;;;;4915380;29;20052;-66
2021/10/25 03:36:44;;;;;;;18.17;12.32;;;;;;;;;;4929654;29;20463;-66
2021/10/25 03:39:11;;;;;;;17.55;11.40;;;;;;;;;;4934253;29;20455;-66
2021/10/25 03:41:41;;;;;;;15.40;11.00;;;;;;;;;;4934055;29;20103;-66
2021/10/25 03:44:16;;;;;;;16.48;11.52;;;;;;;;;;4934407;29;20056;-66
2021/10/25 03:49:20;;;;;;;17.50;11.98;;;;;;;;;;4938112;29;20048;-66
2021/10/25 03:51:47;;;;;;;22.88;13.80;;;;;;;;;;4938014;29;20056;-66
2021/10/25 03:59:25;;;;;;;20.92;11.75;;;;;;;;;;4918855;29;20491;-66
2021/10/25 04:26:24;;;;;;;18.67;13.40;;;;;;;;;;4928069;29;20190;-66
2021/10/25 04:28:51;;;;;;;20.48;13.30;;;;;;;;;;4918282;29;20453;-66
2021/10/25 04:31:18;;;;;;;22.60;13.30;;;;;;;;;;4918051;29;20052;-66
2021/10/25 04:33:44;;;;;;;17.52;12.90;;;;;;;;;;4917640;29;20088;-66
2021/10/25 04:36:11;;;;;;;17.30;12.38;;;;;;;;;;4920152;29;20103;-66
2021/10/25 04:38:38;;;;;;;19.17;13.30;;;;;;;;;;4917867;29;20044;-66
2021/10/25 04:41:04;;;;;;;24.25;14.50;;;;;;;;;;4917788;29;20052;-66
2021/10/25 04:43:31;;;;;;;21.17;14.40;;;;;;;;;;4917013;29;20060;-66
2021/10/25 04:45:58;;;;;;;18.90;13.48;;;;;;;;;;4918183;29;20052;-66
2021/10/25 04:48:26;;;;;;;20.70;13.13;;;;;;;;;;4899141;29;20124;-66
2021/10/25 04:50:52;;;;;;;19.42;13.48;;;;;;;;;;4913580;29;20563;-66
2021/10/25 04:53:19;;;;;;;19.42;13.50;;;;;;;;;;4898917;29;20060;-66
2021/10/25 04:55:46;;;;;;;19.25;14.07;;;;;;;;;;4933859;29;20052;-66
2021/10/25 04:58:12;;;;;;;17.05;13.38;;;;;;;;;;4936185;29;20470;-66
2021/10/25 05:00:39;;;;;;;18.45;13.07;;;;;;;;;;4936989;29;20059;-66
2021/10/25 05:03:06;;;;;;;18.13;13.07;;;;;;;;;;4935371;29;20426;-66
2021/10/25 05:05:33;;;;;;;19.38;12.80;;;;;;;;;;4937021;29;20059;-67
2021/10/25 05:08:00;;;;;;;19.08;13.18;;;;;;;;;;4936663;29;20055;-67
2021/10/25 05:10:26;;;;;;;17.98;12.40;;;;;;;;;;4936542;29;20055;-66
2021/10/25 05:12:53;;;;;;;17.35;12.57;;;;;;;;;;4936517;29;20064;-66
2021/10/25 05:15:19;;;;;;;19.10;13.05;;;;;;;;;;4936649;29;20491;-66
2021/10/25 05:17:46;;;;;;;20.40;12.98;;;;;;;;;;4935397;29;20051;-66
2021/10/25 05:20:13;;;;;;;21.25;13.38;;;;;;;;;;4935697;29;20048;-66
2021/10/25 05:22:39;;;;;;;19.20;13.65;;;;;;;;;;4917243;29;20056;-66
2021/10/25 05:25:07;;;;;;;17.05;13.13;;;;;;;;;;4953483;23;20046;-66
2021/10/25 05:27:35;;;;;;;18.42;12.63;;;;;;;;;;4955604;29;20055;-66
2021/10/25 05:30:03;;;;;;;17.45;13.35;;;;;;;;;;4955638;29;20051;-66
2021/10/25 05:32:30;;;;;;;18.45;13.02;;;;;;;;;;4955415;29;20118;-66
2021/10/25 05:34:57;;;;;;;17.52;13.40;;;;;;;;;;4961701;28;20495;-66
2021/10/25 05:37:24;;;;;;;16.40;12.18;;;;;;;;;;4974587;28;20063;-66
2021/10/25 05:39:51;;;;;;;18.00;12.90;;;;;;;;;;4974735;28;20054;-66
2021/10/25 05:42:18;;;;;;;18.73;13.93;;;;;;;;;;4974130;28;20051;-66
2021/10/25 05:44:44;;;;;;;20.02;14.20;;;;;;;;;;4974459;28;20054;-66
2021/10/25 05:47:11;;;;;;;20.35;13.75;;;;;;;;;;4974614;28;20490;-66
2021/10/25 05:49:39;;;;;;;18.98;13.15;;;;;;;;;;4974340;28;20456;-66
2021/10/25 05:52:05;;;;;;;18.52;13.32;;;;;;;;;;4973814;28;20105;-66
2021/10/25 05:54:32;;;;;;;19.83;13.85;;;;;;;;;;4974158;28;20051;-66
2021/10/25 05:56:59;;;;;;;21.45;14.95;;;;;;;;;;4974398;28;20058;-66
2021/10/25 05:59:27;;;;;;;25.27;15.20;;;;;;;;;;4974091;28;20046;-66
2021/10/25 06:02:06;;;;;;;19.23;13.90;;;;;;;;;;4973920;28;20050;-66
2021/10/25 06:04:34;;;;;;;22.90;15.20;;;;;;;;;;4973760;28;20050;-66
2021/10/25 06:07:00;;;;;;;17.40;13.07;;;;;;;;;;4973792;28;20101;-66
2021/10/25 06:09:34;;;;;;;19.25;14.35;;;;;;;;;;4973496;28;20097;-66
2021/10/25 06:12:09;;;;;;;19.27;13.90;;;;;;;;;;4973921;28;20061;-66
2021/10/25 06:14:40;;;;;;;21.60;12.85;;;;;;;;;;4973995;28;20425;-66
2021/10/25 06:17:38;;;;;;;20.52;13.95;;;;;;;;;;4974019;28;20502;-66
2021/10/25 06:20:10;;;;;;;19.08;13.77;;;;;;;;;;4973985;28;20051;-66
2021/10/25 06:22:38;;;;;;;16.73;13.15;;;;;;;;;;4973718;28;20097;-66
2021/10/25 06:25:07;;;;;;;22.38;13.77;;;;;;;;;;4973580;28;20390;-66
2021/10/25 06:27:33;;;;;;;21.77;14.43;;;;;;;;;;4973601;28;20109;-66
2021/10/25 06:30:00;;;;;;;21.13;14.10;;;;;;;;;;4973780;28;20050;-66
2021/10/25 06:32:27;;;;;;;23.50;14.48;;;;;;;;;;4973465;28;20199;-66
2021/10/25 06:34:55;;;;;;;20.55;14.05;;;;;;;;;;4970836;28;20062;-65
2021/10/25 06:37:27;;;;;;;19.48;13.32;;;;;;;;;;4964113;28;20051;-65
2021/10/25 06:39:55;;;;;;;25.70;13.77;;;;;;;;;;4965761;28;20050;-65
2021/10/25 06:42:24;;;;;;;21.02;14.10;;;;;;;;;;4969785;28;20100;-65
2021/10/25 06:47:22;;;;;;;18.27;13.68;;;;;;;;;;4969247;28;20134;-65
2021/10/25 06:49:49;;;;;;;24.67;16.13;;;;;;;;;;4968570;28;20047;-65
2021/10/25 06:52:16;;;;;;;21.80;14.75;;;;;;;;;;4951785;28;20070;-65
2021/10/25 06:54:43;;;;;;;21.02;14.70;;;;;;;;;;4968898;28;20090;-65
2021/10/25 06:57:10;;;;;;;25.40;15.80;;;;;;;;;;4969278;28;20130;-65
2021/10/25 06:59:36;;;;;;;20.58;13.98;;;;;;;;;;4969902;28;20557;-65
2021/10/25 07:02:03;;;;;;;21.23;14.55;;;;;;;;;;4969586;28;20054;-65
2021/10/25 07:04:30;;;;;;;18.67;13.73;;;;;;;;;;4969607;28;20062;-65
2021/10/25 07:06:57;;;;;;;22.13;14.50;;;;;;;;;;4969366;28;20051;-66
2021/10/25 07:09:24;;;;;;;19.90;13.38;;;;;;;;;;4967604;28;20572;-65
2021/10/25 07:11:50;;;;;;;19.40;13.98;;;;;;;;;;4969767;28;20059;-65
2021/10/25 07:14:24;;;;;;;21.40;14.55;;;;;;;;;;4969485;28;20055;-65
2021/10/25 07:17:04;;;;;;;23.40;14.32;;;;;;;;;;4967366;28;20117;-65
2021/10/25 07:19:52;;;;;;;23.20;15.52;;;;;;;;;;4968843;28;20046;-65
2021/10/25 08:06:56;;;;;;;15.75;11.23;;;;;;;;;;4911257;29;20475;-65
2021/10/25 08:09:39;;;;;;;16.67;11.27;;;;;;;;;;4908199;29;20040;-65
2021/10/25 08:12:09;;;;;;;16.73;10.80;;;;;;;;;;4952898;28;20058;-65
2021/10/25 08:14:40;;;;;;;14.77;10.75;;;;;;;;;;4970798;28;20309;-65
2021/10/25 08:17:09;;;;;;;13.88;10.75;;;;;;;;;;4968001;28;20490;-66
2021/10/25 08:19:35;;;;;;;17.60;11.93;;;;;;;;;;4969877;28;20097;-66
2021/10/25 08:22:05;;;;;;;13.52;11.00;;;;;;;;;;4970472;28;20050;-65
2021/10/25 08:24:38;;;;;;;14.00;10.13;;;;;;;;;;4970552;28;20109;-66
2021/10/25 08:27:05;;;;;;;16.58;11.77;;;;;;;;;;4970803;28;20498;-69
2021/10/25 08:29:32;;;;;;;14.20;11.00;;;;;;;;;;4953512;28;20105;-68
2021/10/25 08:32:12;;;;;;;14.60;11.13;;;;;;;;;;4971592;28;20093;-68
2021/10/25 08:42:24;;;;;;;16.13;9.48;;;;;;;;;;4970802;28;20051;-66
2021/10/25 08:44:59;;;;;;;13.85;9.23;;;;;;;;;;4973899;28;20063;-68
2021/10/25 08:47:31;;;;;;;14.40;9.57;;;;;;;;;;4973876;28;20055;-69
2021/10/25 08:49:57;;;;;;;12.13;8.97;;;;;;;;;;4970902;28;20050;-65
2021/10/25 08:52:25;;;;;;;12.75;8.77;;;;;;;;;;4973262;28;20461;-68
2021/10/25 08:54:52;;;;;;;10.48;8.82;;;;;;;;;;4973650;28;20501;-66
2021/10/25 08:57:20;;;;;;;13.02;8.93;;;;;;;;;;4972983;28;20101;-69
2021/10/25 09:00:04;;;;;;;10.15;8.30;;;;;;;;;;4973292;28;20043;-66
2021/10/25 09:02:31;;;;;;;12.05;8.10;;;;;;;;;;4973532;28;20055;-67
2021/10/25 09:05:04;;;;;;;10.75;8.35;;;;;;;;;;4973892;28;20043;-66
2021/10/25 09:07:31;;;;;;;;;;;;;;;;;;4973830;28;20058;-67
2021/10/25 09:10:02;;;;;;;9.00;7.45;;;;;;;;;;4974027;28;20439;-67
2021/10/25 09:12:32;;;;;;;11.48;8.63;;;;;;;;;;4946975;28;20055;-66
2021/10/25 09:14:59;;;;;;;11.07;7.97;;;;;;;;;;4973726;28;20059;-68
2021/10/25 09:17:26;;;;;;;10.55;7.88;;;;;;;;;;4973509;28;20050;-69
2021/10/25 09:19:52;;;;;;;10.38;7.32;;;;;;;;;;4944773;28;20046;-67
2021/10/25 09:22:20;;;;;;;10.45;7.55;;;;;;;;;;4972994;28;20512;-67
2021/10/25 09:24:57;;;;;;;10.85;7.55;;;;;;;;;;4969780;28;20047;-69
2021/10/25 09:27:41;;;;;;;8.90;7.35;;;;;;;;;;4973330;28;20047;-68
2021/10/25 09:30:11;;;;;;;9.30;7.70;;;;;;;;;;4972933;28;20042;-67
2021/10/25 09:32:39;;;;;;;10.32;7.25;;;;;;;;;;4973037;28;20055;-67
2021/10/25 09:35:16;;;;;;;10.43;7.68;;;;;;;;;;4973152;28;20078;-68
2021/10/25 09:37:58;;;;;;;14.15;7.70;;;;;;;;;;4972761;28;20047;-68
2021/10/25 09:51:33;;;;;;;9.00;6.53;;;;;;;;;;4970543;28;20038;-69
2021/10/25 09:54:05;;;;;;;8.93;6.85;;;;;;;;;;4972574;28;20063;-74
2021/10/25 09:56:34;;;;;;;9.13;6.78;;;;;;;;;;4939704;28;20054;-71
2021/10/25 09:59:18;;;;;;;7.63;6.22;;;;;;;;;;4972462;28;20043;-72
2021/10/25 10:01:45;;;;;;;9.20;5.88;;;;;;;;;;4955487;28;20046;-73
2021/10/25 10:04:13;;;;;;;9.45;5.97;;;;;;;;;;4972442;28;20105;-74
2021/10/25 10:06:40;;;;;;;10.25;6.05;;;;;;;;;;4934211;28;20058;-73
2021/10/25 10:09:07;;;;;;;7.72;5.15;;;;;;;;;;4955486;28;20518;-72
2021/10/25 10:11:34;;;;;;;8.75;6.40;;;;;;;;;;4949467;28;20050;-71
2021/10/25 10:14:01;;;;;;;8.63;5.38;;;;;;;;;;4939548;28;20066;-73
2021/10/25 10:16:28;;;;;;;6.18;5.07;;;;;;;;;;4929978;28;20057;-75
2021/10/25 10:18:58;;;;;;;7.93;5.25;;;;;;;;;;4972471;28;20433;-71
2021/10/25 10:21:25;;;;;;;5.28;4.72;;;;;;;;;;4932304;28;20446;-68
2021/10/25 10:23:58;;;;;;;6.00;4.60;;;;;;;;;;4939357;28;20058;-71
2021/10/25 10:26:31;;;;;;;6.75;4.30;;;;;;;;;;4970546;28;20410;-70
2021/10/25 10:29:13;;;;;;;6.30;4.65;;;;;;;;;;4971587;28;20053;-71
2021/10/25 10:31:40;;;;;;;8.18;4.53;;;;;;;;;;4942823;28;20051;-72
2021/10/25 10:34:16;;;;;;;7.60;4.57;;;;;;;;;;4954566;28;20043;-72
2021/10/25 10:36:54;;;;;;;6.45;4.40;;;;;;;;;;4971871;28;20387;-71
2021/10/25 10:39:30;;;;;;;4.75;4.20;;;;;;;;;;4969110;28;20054;-73
2021/10/25 10:41:58;;;;;;;6.28;4.78;;;;;;;;;;4970104;28;20112;-73
2021/10/25 10:44:27;;;;;;;6.68;4.45;;;;;;;;;;4954558;28;20069;-71
2021/10/25 10:47:06;;;;;;;7.05;4.35;;;;;;;;;;4972177;28;20057;-71
2021/10/25 10:49:38;;;;;;;5.28;4.20;;;;;;;;;;4940449;28;20057;-70
2021/10/25 10:52:45;;;;;;;5.55;4.78;;;;;;;;;;4971521;28;20119;-69
2021/10/25 10:55:25;;;;;;;5.65;4.20;;;;;;;;;;4967043;28;20073;-69
2021/10/25 11:00:40;;;;;;;4.70;3.63;;;;;;;;;;4971439;28;20425;-70
2021/10/25 11:03:28;;;;;;;4.00;3.60;;;;;;;;;;4971501;28;20051;-70
2021/10/25 11:06:03;;;;;;;4.68;3.72;;;;;;;;;;4971408;28;20078;-71
2021/10/25 11:08:34;;;;;;;4.22;3.50;;;;;;;;;;4944615;28;20062;-70
2021/10/25 11:11:06;;;;;;;4.80;3.50;;;;;;;;;;4970294;28;20089;-71
2021/10/25 11:13:43;;;;;;;5.75;3.95;;;;;;;;;;4946306;28;20046;-72
2021/10/25 11:16:15;;;;;;;5.68;3.85;;;;;;;;;;4948588;28;20046;-69
2021/10/25 11:18:44;;;;;;;6.50;3.42;;;;;;;;;;4970025;28;20051;-69
2021/10/25 11:21:19;;;;;;;4.43;3.25;;;;;;;;;;4944503;28;20047;-69
2021/10/25 11:23:48;;;;;;;4.15;3.60;;;;;;;;;;4968151;28;20497;-72
2021/10/25 11:26:23;;;;;;;5.22;3.92;;;;;;;;;;4944864;23;20503;-71
2021/10/25 11:28:53;;;;;;;4.05;3.60;;;;;;;;;;4920781;29;20503;-70
2021/10/25 11:31:20;;;;;;;5.80;3.05;;;;;;;;;;4922825;29;20044;-76
2021/10/25 11:33:48;;;;;;;6.13;3.33;;;;;;;;;;4915282;29;20048;-66
2021/10/25 11:36:16;;;;;;;4.97;3.25;;;;;;;;;;4919574;29;20056;-65
2021/10/25 11:38:43;;;;;;;3.38;3.08;;;;;;;;;;4923602;29;20060;-73
2021/10/25 11:41:11;;;;;;;3.97;3.50;;;;;;;;;;4921891;29;20067;-71
2021/10/25 11:43:38;;;;;;;3.88;3.42;;;;;;;;;;4921456;29;20474;-75
2021/10/25 11:46:21;;;;;;;4.05;3.10;;;;;;;;;;4897872;29;20135;-70
2021/10/25 11:48:58;;;;;;;6.95;2.80;;;;;;;;;;4926025;29;20103;-69
2021/10/25 11:51:26;;;;;;;3.50;2.95;;;;;;;;;;4919275;29;20496;-70
2021/10/25 11:54:00;;;;;;;6.68;3.13;;;;;;;;;;4920441;29;20052;-69
2021/10/25 11:56:29;;;;;;;4.38;3.40;;;;;;;;;;4921791;29;20078;-70
2021/10/25 11:58:56;;;;;;;4.13;2.90;;;;;;;;;;4921263;29;20051;-66
2021/10/25 12:01:24;;;;;;;4.78;2.92;;;;;;;;;;4919849;29;20048;-66
2021/10/25 12:03:51;;;;;;;5.70;2.85;;;;;;;;;;4925281;29;20056;-66
2021/10/25 12:06:19;;;;;;;4.80;2.67;;;;;;;;;;4891080;28;20056;-66
2021/10/25 12:09:09;;;;;;;3.95;2.50;;;;;;;;;;4908688;29;20119;-65
2021/10/25 12:14:26;;;;;;;2.58;2.38;;;;;;;;;;4903974;29;20199;-67
2021/10/25 12:16:53;;;;;;;4.43;2.50;;;;;;;;;;4903453;29;20052;-67
2021/10/25 12:19:20;;;;;;;3.63;2.42;;;;;;;;;;4882682;29;20052;-67
2021/10/25 12:21:47;;;;;;;4.85;2.55;;;;;;;;;;4899627;29;20101;-67
2021/10/25 12:24:14;;;;;;;2.35;1.70;;;;;;;;;;4908154;29;20100;-67
2021/10/25 12:26:42;;;;;;;2.00;1.80;;;;;;;;;;4904414;29;20053;-67
2021/10/25 12:29:19;;;;;;;3.47;2.15;;;;;;;;;;4906068;29;20514;-67
2021/10/25 12:31:46;;;;;;;3.85;2.08;;;;;;;;;;4905190;29;20049;-67
2021/10/25 12:34:14;;;;;;;3.70;2.40;;;;;;;;;;4906634;29;20096;-67
2021/10/25 12:36:43;;;;;;;2.50;1.90;;;;;;;;;;4905847;29;20439;-67
2021/10/25 12:39:18;;;;;;;3.38;2.30;;;;;;;;;;4900409;29;20052;-67
2021/10/25 12:41:49;;;;;;;2.20;2.00;;;;;;;;;;4905661;29;20052;-67
2021/10/25 12:44:23;;;;;;;2.95;2.05;;;;;;;;;;4904529;29;20049;-67
2021/10/25 12:46:51;;;;;;;2.85;2.00;;;;;;;;;;4904164;29;20508;-67
2021/10/25 12:49:21;;;;;;;2.13;1.92;;;;;;;;;;4906689;29;20574;-67
2021/10/25 12:51:48;;;;;;;3.25;1.70;;;;;;;;;;4903640;29;20405;-67
2021/10/25 12:54:15;;;;;;;3.90;2.13;;;;;;;;;;4898170;29;20051;-67
2021/10/25 12:56:43;;;;;;;4.90;1.90;;;;;;;;;;4903954;29;20475;-67
2021/10/25 12:59:12;;;;;;;4.75;1.90;;;;;;;;;;4905370;29;20112;-67
2021/10/25 13:01:50;;;;;;;5.10;2.63;;;;;;;;;;4903754;29;20052;-67
2021/10/25 13:04:19;;;;;;;4.03;1.90;;;;;;;;;;4903336;29;20104;-67
2021/10/25 13:06:46;;;;;;;2.63;2.00;;;;;;;;;;4907965;29;20060;-67
2021/10/25 13:09:12;;;;;;;8.48;3.00;;;;;;;;;;4905502;29;20507;-67
2021/10/25 13:11:39;;;;;;;4.88;2.95;;;;;;;;;;4904108;29;20056;-67
2021/10/25 13:14:07;;;;;;;4.55;2.60;;;;;;;;;;4903667;29;20097;-67
2021/10/25 13:16:42;;;;;;;3.45;2.08;;;;;;;;;;4905148;29;20538;-67
2021/10/25 13:19:10;;;;;;;2.58;1.85;;;;;;;;;;4903715;29;20048;-67
2021/10/25 13:21:37;;;;;;;2.75;1.90;;;;;;;;;;4903874;29;20052;-67
2021/10/25 13:24:04;;;;;;;5.65;2.20;;;;;;;;;;4898427;29;20068;-67
2021/10/25 13:26:38;;;;;;;;;;;;;;;;;;4900430;29;20063;-67
2021/10/25 13:29:05;;;;;;;5.22;2.10;;;;;;;;;;4906211;29;19929;-67
2021/10/25 13:31:32;;;;;;;3.58;1.60;;;;;;;;;;4903120;29;20509;-67
2021/10/25 13:34:00;;;;;;;4.63;2.03;;;;;;;;;;4909045;29;20056;-67
2021/10/25 13:36:26;;;;;;;2.40;1.88;;;;;;;;;;4908059;29;20055;-67
2021/10/25 13:39:05;;;;;;;3.95;2.10;;;;;;;;;;4908822;29;20510;-67
2021/10/25 13:41:32;;;;;;;3.13;2.00;;;;;;;;;;4903457;29;20047;-71
2021/10/25 13:43:59;;;;;;;5.43;2.10;;;;;;;;;;4899366;29;20139;-67
2021/10/25 13:46:26;;;;;;;3.95;1.88;;;;;;;;;;4904943;29;20096;-74
2021/10/25 13:48:52;;;;;;;3.00;1.88;;;;;;;;;;4903034;29;20052;-75
2021/10/25 13:51:22;;;;;;;5.53;2.42;;;;;;;;;;4890086;29;20044;-70
2021/10/25 13:53:49;;;;;;;5.50;2.08;;;;;;;;;;4902454;29;20052;-70
2021/10/25 13:56:16;;;;;;;2.92;2.00;;;;;;;;;;4906036;29;20048;-73
2021/10/25 13:58:42;;;;;;;4.13;1.88;;;;;;;;;;4905397;29;20056;-70
2021/10/25 14:01:10;;;;;;;3.75;1.70;;;;;;;;;;4905686;29;20044;-72
2021/10/25 14:03:38;;;;;;;2.55;1.83;;;;;;;;;;4902883;29;20056;-73
2021/10/25 14:06:09;;;;;;;1.70;1.60;;;;;;;;;;4903192;29;20592;-73
2021/10/25 14:08:36;;;;;;;2.38;1.50;;;;;;;;;;4874017;29;20438;-71
2021/10/25 14:11:03;;;;;;;5.70;2.00;;;;;;;;;;4898566;29;20097;-71
2021/10/25 14:13:40;;;;;;;3.22;1.90;;;;;;;;;;4881432;29;20135;-69
2021/10/25 14:18:38;;;;;;;2.30;1.33;;;;;;;;;;4916726;29;20092;-72
2021/10/25 14:21:05;;;;;;;1.42;1.27;;;;;;;;;;4915213;29;20056;-71
2021/10/25 14:23:32;;;;;;;1.63;1.38;;;;;;;;;;4915045;29;20059;-71
2021/10/25 14:25:58;;;;;;;2.03;1.50;;;;;;;;;;4917853;29;20060;-71
2021/10/25 14:28:29;;;;;;;2.17;1.50;;;;;;;;;;4917391;29;20119;-71
2021/10/25 14:30:57;;;;;;;4.60;1.30;;;;;;;;;;4917687;29;20044;-71
2021/10/25 14:33:25;;;;;;;3.22;1.63;;;;;;;;;;4923515;29;20060;-73
2021/10/25 14:35:53;;;;;;;1.80;1.30;;;;;;;;;;4924059;29;20048;-70
2021/10/25 14:38:40;;;;;;;2.20;1.30;;;;;;;;;;4926577;29;20044;-73
2021/10/25 14:43:41;;;;;;;2.00;1.33;;;;;;;;;;4925392;29;20117;-74
2021/10/25 14:46:12;;;;;;;3.72;1.70;;;;;;;;;;4925795;29;20052;-73
2021/10/25 14:48:55;;;;;;;3.13;1.42;;;;;;;;;;4916738;29;20571;-69
2021/10/25 14:54:18;;;;;;;2.00;1.40;;;;;;;;;;4912665;29;20073;-69
2021/10/25 14:56:45;;;;;;;4.90;2.10;;;;;;;;;;4907303;29;20053;-68
2021/10/25 14:59:11;;;;;;;3.60;1.80;;;;;;;;;;4910949;29;20141;-69
2021/10/25 15:01:38;;;;;;;3.80;2.22;;;;;;;;;;4903773;29;20052;-67
2021/10/25 15:04:07;;;;;;;3.50;1.88;;;;;;;;;;4903028;29;20126;-66
2021/10/25 15:06:35;;;;;;;2.72;1.70;;;;;;;;;;4905217;29;20500;-65
2021/10/25 15:09:03;;;;;;;6.95;1.92;;;;;;;;;;4901600;29;20112;-65
2021/10/25 15:11:30;;;;;;;3.03;2.03;;;;;;;;;;4905200;29;20493;-66
2021/10/25 15:13:57;;;;;;;2.42;1.73;;;;;;;;;;4904080;29;20095;-70
2021/10/25 15:16:24;;;;;;;4.35;2.03;;;;;;;;;;4902094;29;20083;-72
2021/10/25 15:18:51;;;;;;;5.13;2.80;;;;;;;;;;4904905;29;20143;-70
2021/10/25 15:21:20;;;;;;;6.65;3.15;;;;;;;;;;4903055;29;20095;-66
2021/10/25 15:23:47;;;;;;;5.88;3.42;;;;;;;;;;4901212;29;20475;-67
2021/10/25 15:26:13;;;;;;;5.47;3.17;;;;;;;;;;4903879;29;20103;-78
2021/10/25 15:28:40;;;;;;;3.97;2.70;;;;;;;;;;4903736;29;20057;-73
2021/10/25 15:31:07;;;;;;;3.92;3.03;;;;;;;;;;4902442;29;20044;-72
2021/10/25 15:33:33;;;;;;;4.75;2.70;;;;;;;;;;4904432;29;20511;-72
2021/10/25 15:36:02;;;;;;;5.72;3.40;;;;;;;;;;4901772;29;20147;-67
2021/10/25 15:38:29;;;;;;;5.10;2.40;;;;;;;;;;4902276;29;20438;-65
2021/10/25 15:40:56;;;;;;;6.00;2.63;;;;;;;;;;4903079;29;20059;-64
2021/10/25 15:43:23;;;;;;;4.13;2.58;;;;;;;;;;4908948;29;20112;-66
2021/10/25 15:45:50;;;;;;;4.72;3.22;;;;;;;;;;4907581;29;20430;-66
2021/10/25 15:48:17;;;;;;;3.38;2.70;;;;;;;;;;4907034;29;20048;-66
2021/10/25 15:50:45;;;;;;;6.93;2.70;;;;;;;;;;4904863;29;20072;-67
2021/10/25 15:53:12;;;;;;;9.75;3.83;;;;;;;;;;4905399;29;20542;-66
2021/10/25 15:55:39;;;;;;;5.13;2.55;;;;;;;;;;4906869;29;20052;-68
2021/10/25 15:58:05;;;;;;;4.32;2.58;;;;;;;;;;4907774;29;20048;-67
2021/10/25 16:00:34;;;;;;;6.63;2.85;;;;;;;;;;4904361;29;20108;-73
2021/10/25 16:03:07;;;;;;;5.63;2.63;;;;;;;;;;4905983;29;20044;-72
2021/10/25 16:05:38;;;;;;;5.25;2.58;;;;;;;;;;4906857;29;20092;-72
2021/10/25 16:08:05;;;;;;;5.35;2.67;;;;;;;;;;4900221;29;20285;-72
2021/10/25 16:10:33;;;;;;;6.50;2.92;;;;;;;;;;4907626;29;20091;-67
2021/10/25 16:13:00;;;;;;;4.10;2.95;;;;;;;;;;4904355;29;20131;-68
2021/10/25 16:15:28;;;;;;;8.00;3.63;;;;;;;;;;4905618;29;20059;-67
2021/10/25 16:17:55;;;;;;;6.35;2.92;;;;;;;;;;4904354;29;20056;-67
2021/10/25 16:20:43;;;;;;;8.15;3.55;;;;;;;;;;4901796;29;20053;-65
2021/10/25 16:23:10;;;;;;;6.93;3.78;;;;;;;;;;4906826;29;20445;-67
2021/10/25 16:25:38;;;;;;;8.88;4.43;;;;;;;;;;4897419;29;20068;-67
2021/10/25 16:28:05;;;;;;;5.70;3.55;;;;;;;;;;4905913;29;20056;-65
2021/10/25 16:30:33;;;;;;;7.38;4.18;;;;;;;;;;4904035;29;20496;-66
2021/10/25 16:33:00;;;;;;;10.52;5.15;;;;;;;;;;4907072;29;20048;-71